Time;durP1;ratioP1;P1;durP2;ratioP2;P2;SDS_P1;SDS_P2;PMS_P1;PMS_P2;Temp;Humidity;BMP_temperature;BMP_pressure;BME280_temperature;BME280_humidity;BME280_pressure;Samples;Min_cycle;Max_cycle;Signal;HPM_P1;HPM_P2
2024/03/02 00:01:02;;;;;;;12.32;7.10;;;;;;;;;;10374132;28;20851;-63
2024/03/02 00:06:01;;;;;;;15.20;7.60;;;;;;;;;;10373490;28;20067;-63
2024/03/02 00:11:00;;;;;;;13.40;6.35;;;;;;;;;;10374845;28;20075;-64
2024/03/02 00:15:58;;;;;;;14.05;7.47;;;;;;;;;;10370154;28;20449;-65
2024/03/02 00:20:58;;;;;;;18.40;8.35;;;;;;;;;;10373495;28;20071;-64
2024/03/02 00:25:56;;;;;;;12.27;6.65;;;;;;;;;;10376003;28;20071;-63
2024/03/02 00:30:59;;;;;;;16.55;7.05;;;;;;;;;;10375868;28;20102;-65
2024/03/02 00:35:59;;;;;;;10.23;6.03;;;;;;;;;;10375114;28;20075;-64
2024/03/02 00:40:59;;;;;;;15.50;6.75;;;;;;;;;;10372834;28;20060;-62
2024/03/02 00:45:57;;;;;;;13.55;6.57;;;;;;;;;;10371883;28;20501;-64
2024/03/02 00:50:56;;;;;;;14.63;7.95;;;;;;;;;;10373778;28;20076;-64
2024/03/02 00:55:55;;;;;;;16.63;10.35;;;;;;;;;;10376950;28;20078;-65
2024/03/02 01:00:53;;;;;;;15.18;9.88;;;;;;;;;;10375359;28;20080;-63
2024/03/02 01:05:52;;;;;;;20.08;11.52;;;;;;;;;;10383942;28;20479;-65
2024/03/02 01:10:50;;;;;;;21.20;11.07;;;;;;;;;;10378132;28;20471;-64
2024/03/02 01:15:50;;;;;;;18.30;10.73;;;;;;;;;;10382843;28;20075;-62
2024/03/02 01:20:51;;;;;;;20.30;11.27;;;;;;;;;;10379583;28;20072;-63
2024/03/02 01:25:49;;;;;;;16.13;9.73;;;;;;;;;;10374686;28;20075;-64
2024/03/02 01:30:47;;;;;;;13.45;8.88;;;;;;;;;;10372878;28;20487;-64
2024/03/02 01:35:47;;;;;;;18.80;9.98;;;;;;;;;;10381903;28;20067;-63
2024/03/02 01:40:45;;;;;;;18.63;8.45;;;;;;;;;;10378472;28;20089;-64
2024/03/02 01:45:43;;;;;;;20.75;10.70;;;;;;;;;;10382806;28;20080;-63
2024/03/02 01:50:42;;;;;;;16.38;7.75;;;;;;;;;;10380525;28;20079;-64
2024/03/02 01:55:41;;;;;;;31.52;16.73;;;;;;;;;;10363329;28;20579;-65
2024/03/02 02:00:40;;;;;;;17.13;8.52;;;;;;;;;;10383390;28;20099;-65
2024/03/02 02:05:38;;;;;;;22.40;11.32;;;;;;;;;;10377562;28;20071;-63
2024/03/02 02:10:37;;;;;;;14.40;9.20;;;;;;;;;;10379109;28;20068;-64
2024/03/02 02:15:37;;;;;;;14.80;9.02;;;;;;;;;;10376611;28;20072;-63
2024/03/02 02:20:35;;;;;;;15.93;8.25;;;;;;;;;;10376779;28;20086;-64
2024/03/02 02:25:35;;;;;;;15.73;8.15;;;;;;;;;;10380322;28;20067;-63
2024/03/02 02:30:33;;;;;;;16.90;7.70;;;;;;;;;;10378369;28;20076;-64
2024/03/02 02:35:32;;;;;;;16.73;8.48;;;;;;;;;;10379659;28;20080;-64
2024/03/02 02:40:30;;;;;;;16.27;8.45;;;;;;;;;;10379706;28;20067;-64
2024/03/02 02:45:30;;;;;;;16.73;9.00;;;;;;;;;;10377356;28;20070;-63
2024/03/02 02:50:28;;;;;;;25.63;15.48;;;;;;;;;;10379553;28;20079;-63
2024/03/02 02:55:27;;;;;;;18.67;11.52;;;;;;;;;;10375217;28;20071;-64
2024/03/02 03:00:25;;;;;;;18.20;9.68;;;;;;;;;;10373034;28;20382;-64
2024/03/02 03:05:25;;;;;;;14.00;8.40;;;;;;;;;;10380698;28;20059;-64
2024/03/02 03:10:25;;;;;;;12.30;9.27;;;;;;;;;;10375660;28;20064;-64
2024/03/02 03:15:24;;;;;;;14.18;9.45;;;;;;;;;;10373583;28;20064;-64
2024/03/02 03:20:23;;;;;;;16.60;11.98;;;;;;;;;;10376050;28;20071;-65
2024/03/02 03:25:23;;;;;;;23.10;11.95;;;;;;;;;;10374693;28;20036;-64
2024/03/02 03:30:21;;;;;;;22.15;10.07;;;;;;;;;;10375662;28;20098;-64
2024/03/02 03:35:19;;;;;;;14.48;8.30;;;;;;;;;;10378248;28;20063;-64
2024/03/02 03:40:18;;;;;;;17.58;9.07;;;;;;;;;;10360072;28;20075;-63
2024/03/02 03:45:18;;;;;;;15.48;9.65;;;;;;;;;;10374958;28;20059;-63
2024/03/02 03:50:16;;;;;;;14.48;9.90;;;;;;;;;;10375898;28;20133;-64
2024/03/02 03:55:14;;;;;;;17.15;9.70;;;;;;;;;;10377049;28;20074;-64
2024/03/02 04:00:13;;;;;;;16.27;7.75;;;;;;;;;;10378554;28;20075;-64
2024/03/02 04:05:13;;;;;;;17.60;8.20;;;;;;;;;;10375409;28;20063;-66
2024/03/02 04:10:12;;;;;;;14.57;8.90;;;;;;;;;;10375990;28;20758;-64
2024/03/02 04:15:11;;;;;;;11.75;7.65;;;;;;;;;;10372992;28;20923;-64
2024/03/02 04:20:09;;;;;;;14.32;7.53;;;;;;;;;;10371708;28;20063;-64
2024/03/02 04:25:09;;;;;;;11.93;7.18;;;;;;;;;;10376677;28;20067;-64
2024/03/02 04:30:08;;;;;;;13.73;7.50;;;;;;;;;;10377438;28;20075;-65
2024/03/02 04:35:08;;;;;;;17.35;7.50;;;;;;;;;;10378597;28;20090;-64
2024/03/02 04:40:09;;;;;;;10.23;6.65;;;;;;;;;;10391756;28;20477;-67
2024/03/02 04:45:10;;;;;;;17.50;9.43;;;;;;;;;;10391362;28;20060;-64
2024/03/02 04:50:09;;;;;;;16.15;7.90;;;;;;;;;;10387249;28;20079;-64
2024/03/02 05:00:20;;;;;;;10.65;6.82;;;;;;;;;;10382323;28;20086;-64
2024/03/02 05:05:19;;;;;;;18.15;7.80;;;;;;;;;;10387124;28;20085;-64
2024/03/02 05:10:17;;;;;;;14.70;8.48;;;;;;;;;;10383301;28;20475;-64
2024/03/02 05:15:15;;;;;;;17.10;10.40;;;;;;;;;;10388865;28;20071;-65
2024/03/02 05:20:15;;;;;;;15.95;7.72;;;;;;;;;;10388054;28;20067;-64
2024/03/02 05:25:13;;;;;;;12.73;7.95;;;;;;;;;;10386094;28;20075;-65
2024/03/02 05:30:12;;;;;;;18.77;10.27;;;;;;;;;;10392695;28;20063;-64
2024/03/02 05:35:12;;;;;;;19.08;8.25;;;;;;;;;;10385758;28;20548;-64
2024/03/02 05:40:13;;;;;;;14.57;8.48;;;;;;;;;;10388043;28;20071;-65
2024/03/02 05:45:11;;;;;;;17.00;8.82;;;;;;;;;;10387291;28;20548;-64
2024/03/02 05:50:10;;;;;;;12.40;7.38;;;;;;;;;;10378323;28;20082;-64
2024/03/02 05:55:08;;;;;;;27.75;15.65;;;;;;;;;;10383602;28;20081;-65
2024/03/02 06:00:08;;;;;;;20.05;9.20;;;;;;;;;;10377443;28;20080;-65
2024/03/02 06:05:10;;;;;;;20.03;13.53;;;;;;;;;;10364133;28;20543;-65
2024/03/02 06:10:09;;;;;;;14.38;8.82;;;;;;;;;;10376326;28;20074;-64
2024/03/02 06:15:12;;;;;;;22.40;11.13;;;;;;;;;;10376843;28;20072;-65
2024/03/02 06:20:11;;;;;;;17.63;8.55;;;;;;;;;;10385755;28;20083;-63
2024/03/02 06:25:09;;;;;;;11.25;7.85;;;;;;;;;;10379339;28;20679;-64
2024/03/02 06:30:08;;;;;;;15.95;8.98;;;;;;;;;;10375282;28;20082;-65
2024/03/02 06:35:09;;;;;;;10.98;8.30;;;;;;;;;;10365813;28;20081;-65
2024/03/02 06:40:09;;;;;;;14.95;8.13;;;;;;;;;;10382182;28;20094;-64
2024/03/02 06:45:07;;;;;;;19.33;9.75;;;;;;;;;;10374841;28;20079;-64
2024/03/02 06:50:06;;;;;;;23.77;10.85;;;;;;;;;;10376722;28;20078;-65
2024/03/02 06:55:07;;;;;;;15.73;11.27;;;;;;;;;;10377809;28;20071;-65
2024/03/02 07:00:08;;;;;;;19.50;13.23;;;;;;;;;;10384039;28;20134;-66
2024/03/02 07:05:09;;;;;;;20.08;13.00;;;;;;;;;;10376657;28;20111;-64
2024/03/02 07:10:09;;;;;;;19.27;16.70;;;;;;;;;;10377629;28;20098;-65
2024/03/02 07:15:36;;;;;;;17.10;13.45;;;;;;;;;;10377341;28;20142;-64
2024/03/02 07:20:35;;;;;;;23.33;13.90;;;;;;;;;;10389318;28;20084;-65
2024/03/02 07:25:38;;;;;;;18.75;13.07;;;;;;;;;;10379481;28;20512;-65
2024/03/02 07:30:40;;;;;;;15.98;11.32;;;;;;;;;;10377884;28;20067;-64
2024/03/02 07:35:38;;;;;;;20.45;13.75;;;;;;;;;;10381881;28;20098;-64
2024/03/02 07:40:38;;;;;;;20.23;14.73;;;;;;;;;;10374169;28;20078;-64
2024/03/02 07:45:36;;;;;;;15.52;12.30;;;;;;;;;;10375599;28;20459;-65
2024/03/02 07:50:35;;;;;;;22.85;13.40;;;;;;;;;;10376204;28;20071;-65
2024/03/02 07:55:33;;;;;;;19.30;13.13;;;;;;;;;;10351407;28;20078;-65
2024/03/02 08:00:33;;;;;;;32.28;24.77;;;;;;;;;;10366347;28;20083;-65
2024/03/02 08:05:31;;;;;;;19.52;13.80;;;;;;;;;;10358243;28;20083;-65
2024/03/02 08:10:29;;;;;;;18.60;13.93;;;;;;;;;;10368280;28;20078;-65
2024/03/02 08:15:28;;;;;;;27.60;19.85;;;;;;;;;;10373245;28;20108;-65
2024/03/02 08:20:28;;;;;;;26.45;14.60;;;;;;;;;;10372532;28;20074;-65
2024/03/02 08:25:26;;;;;;;17.00;13.02;;;;;;;;;;10371257;28;20078;-63
2024/03/02 08:30:24;;;;;;;19.63;13.20;;;;;;;;;;10369679;28;20063;-64
2024/03/02 08:35:24;;;;;;;23.33;15.38;;;;;;;;;;10370428;28;20594;-65
2024/03/02 08:40:24;;;;;;;18.15;12.90;;;;;;;;;;10363767;28;20071;-63
2024/03/02 08:45:22;;;;;;;17.55;13.38;;;;;;;;;;10365896;28;20067;-62
2024/03/02 08:50:20;;;;;;;33.45;22.42;;;;;;;;;;10376141;28;20451;-64
2024/03/02 08:55:18;;;;;;;15.15;12.68;;;;;;;;;;10372526;28;20083;-64
2024/03/02 09:00:19;;;;;;;35.33;28.27;;;;;;;;;;10361995;28;20083;-64
2024/03/02 09:05:18;;;;;;;23.70;18.98;;;;;;;;;;10373134;28;20074;-64
2024/03/02 09:10:16;;;;;;;18.95;15.93;;;;;;;;;;10370766;28;20039;-63
2024/03/02 09:15:14;;;;;;;18.98;12.23;;;;;;;;;;10368867;28;20083;-64
2024/03/02 09:20:14;;;;;;;18.55;13.30;;;;;;;;;;10374562;28;20067;-65
2024/03/02 09:25:13;;;;;;;15.02;12.40;;;;;;;;;;10381345;28;20078;-63
2024/03/02 09:30:13;;;;;;;18.75;14.40;;;;;;;;;;10377720;28;20070;-64
2024/03/02 09:35:11;;;;;;;14.85;12.25;;;;;;;;;;10378478;28;20083;-63
2024/03/02 09:40:12;;;;;;;19.33;12.40;;;;;;;;;;10382888;28;20075;-64
2024/03/02 09:45:10;;;;;;;33.03;26.65;;;;;;;;;;10378424;28;20053;-64
2024/03/02 09:50:09;;;;;;;17.17;12.98;;;;;;;;;;10368376;28;20036;-63
2024/03/02 09:55:07;;;;;;;25.75;16.65;;;;;;;;;;10379365;28;20503;-63
2024/03/02 10:00:08;;;;;;;24.17;18.05;;;;;;;;;;10380544;28;20582;-64
2024/03/02 10:05:07;;;;;;;13.93;12.18;;;;;;;;;;10377805;28;20173;-64
2024/03/02 10:10:13;;;;;;;18.40;12.40;;;;;;;;;;10378848;28;20047;-65
2024/03/02 10:15:14;;;;;;;21.70;13.25;;;;;;;;;;10378188;28;20083;-65
2024/03/02 10:20:25;;;;;;;15.52;11.93;;;;;;;;;;10375820;28;20071;-65
2024/03/02 10:25:29;;;;;;;18.83;13.70;;;;;;;;;;10377719;28;20048;-64
2024/03/02 10:30:42;;;;;;;28.60;19.67;;;;;;;;;;10378153;28;20603;-66
2024/03/02 10:35:40;;;;;;;20.95;13.18;;;;;;;;;;10376780;28;20090;-65
2024/03/02 10:40:38;;;;;;;19.73;13.98;;;;;;;;;;10374894;28;20071;-66
2024/03/02 10:45:37;;;;;;;20.08;15.55;;;;;;;;;;10376266;28;20142;-64
2024/03/02 10:50:36;;;;;;;23.55;16.05;;;;;;;;;;10384318;28;20072;-65
2024/03/02 10:55:34;;;;;;;19.08;15.43;;;;;;;;;;10376702;28;20083;-64
2024/03/02 11:00:34;;;;;;;19.90;14.43;;;;;;;;;;10373503;28;20095;-64
2024/03/02 11:05:34;;;;;;;23.63;15.82;;;;;;;;;;10373762;28;20079;-65
2024/03/02 11:10:37;;;;;;;23.08;14.88;;;;;;;;;;10376664;28;20508;-66
2024/03/02 11:15:37;;;;;;;22.95;16.08;;;;;;;;;;10376529;28;20083;-66
2024/03/02 11:20:37;;;;;;;24.15;14.02;;;;;;;;;;10374913;28;20096;-66
2024/03/02 11:25:39;;;;;;;18.58;14.68;;;;;;;;;;10370461;28;20686;-65
2024/03/02 11:30:55;;;;;;;20.77;14.13;;;;;;;;;;10374745;28;20072;-66
2024/03/02 11:35:54;;;;;;;17.02;12.70;;;;;;;;;;10373694;28;20513;-66
2024/03/02 11:40:54;;;;;;;17.23;12.80;;;;;;;;;;10373656;28;20076;-64
2024/03/02 11:45:57;;;;;;;18.80;13.63;;;;;;;;;;10370824;28;20077;-64
2024/03/02 11:50:58;;;;;;;22.42;15.27;;;;;;;;;;10370572;28;20067;-65
2024/03/02 11:55:58;;;;;;;17.23;14.90;;;;;;;;;;10375287;28;20083;-65
2024/03/02 12:00:57;;;;;;;22.92;15.15;;;;;;;;;;10371367;28;20056;-65
2024/03/02 12:05:56;;;;;;;25.60;13.85;;;;;;;;;;10373538;28;20082;-66
2024/03/02 12:10:59;;;;;;;16.20;13.40;;;;;;;;;;10368930;28;20067;-65
2024/03/02 12:15:57;;;;;;;19.60;14.18;;;;;;;;;;10370883;28;20087;-65
2024/03/02 12:20:58;;;;;;;16.55;12.43;;;;;;;;;;10372696;28;20452;-65
2024/03/02 12:25:57;;;;;;;15.48;12.10;;;;;;;;;;10372306;28;20071;-64
2024/03/02 12:30:56;;;;;;;17.10;12.43;;;;;;;;;;10371874;28;20076;-66
2024/03/02 12:35:55;;;;;;;19.42;14.38;;;;;;;;;;10372173;28;20072;-64
2024/03/02 12:40:53;;;;;;;20.13;13.70;;;;;;;;;;10373493;28;20441;-66
2024/03/02 12:45:51;;;;;;;16.80;13.23;;;;;;;;;;10373195;28;20044;-65
2024/03/02 12:50:51;;;;;;;17.38;11.65;;;;;;;;;;10371697;28;20071;-65
2024/03/02 12:55:49;;;;;;;20.92;12.75;;;;;;;;;;10373645;28;20074;-66
2024/03/02 13:00:48;;;;;;;21.25;15.07;;;;;;;;;;10377380;28;20087;-66
2024/03/02 13:05:49;;;;;;;13.68;12.15;;;;;;;;;;10377838;28;20082;-66
2024/03/02 13:10:49;;;;;;;23.10;14.30;;;;;;;;;;10370375;28;20048;-66
2024/03/02 13:15:47;;;;;;;17.58;13.45;;;;;;;;;;10378667;28;20087;-65
2024/03/02 13:20:45;;;;;;;18.65;13.63;;;;;;;;;;10387438;28;20063;-65
2024/03/02 13:25:44;;;;;;;20.23;13.13;;;;;;;;;;10386595;28;20082;-64
2024/03/02 13:30:44;;;;;;;26.05;15.77;;;;;;;;;;10393431;28;20072;-65
2024/03/02 13:35:43;;;;;;;15.80;11.38;;;;;;;;;;10382039;28;20083;-63
2024/03/02 13:40:41;;;;;;;16.05;11.85;;;;;;;;;;10379807;28;20076;-66
2024/03/02 13:45:39;;;;;;;13.13;11.23;;;;;;;;;;10378643;28;20075;-66
2024/03/02 13:50:42;;;;;;;17.90;12.18;;;;;;;;;;10380210;28;20074;-65
2024/03/02 13:55:41;;;;;;;16.58;12.30;;;;;;;;;;10377327;28;20075;-65
2024/03/02 14:00:40;;;;;;;20.70;14.20;;;;;;;;;;10377924;28;20091;-66
2024/03/02 14:05:39;;;;;;;18.90;14.68;;;;;;;;;;10379018;28;20078;-65
2024/03/02 14:10:38;;;;;;;50.13;32.15;;;;;;;;;;10374474;28;20213;-65
2024/03/02 14:15:38;;;;;;;24.15;17.23;;;;;;;;;;10376630;28;20071;-66
2024/03/02 14:20:42;;;;;;;27.98;15.57;;;;;;;;;;10376987;28;20071;-64
2024/03/02 14:25:41;;;;;;;14.23;11.25;;;;;;;;;;10378670;28;20080;-65
2024/03/02 14:30:39;;;;;;;13.45;11.70;;;;;;;;;;10371899;28;20079;-65
2024/03/02 14:35:38;;;;;;;16.45;10.23;;;;;;;;;;10374806;28;20071;-65
2024/03/02 14:40:38;;;;;;;18.10;13.45;;;;;;;;;;10376079;28;20078;-65
2024/03/02 14:45:36;;;;;;;16.38;11.57;;;;;;;;;;10375186;28;20040;-65
2024/03/02 14:50:35;;;;;;;18.95;12.25;;;;;;;;;;10375630;28;20099;-63
2024/03/02 14:55:33;;;;;;;16.80;12.25;;;;;;;;;;10375171;28;20473;-65
2024/03/02 15:00:33;;;;;;;17.48;11.43;;;;;;;;;;10373686;28;20551;-66
2024/03/02 15:05:31;;;;;;;11.65;10.45;;;;;;;;;;10374374;28;20091;-65
2024/03/02 15:10:30;;;;;;;16.90;13.23;;;;;;;;;;10378816;28;20067;-66
2024/03/02 15:15:28;;;;;;;17.00;12.48;;;;;;;;;;10373979;28;20086;-64
2024/03/02 15:20:30;;;;;;;25.05;12.93;;;;;;;;;;10377555;28;20067;-64
2024/03/02 15:25:28;;;;;;;19.98;12.35;;;;;;;;;;10374446;28;20079;-65
2024/03/02 15:30:26;;;;;;;24.83;19.30;;;;;;;;;;10380091;28;20071;-64
2024/03/02 15:35:25;;;;;;;14.95;11.70;;;;;;;;;;10372724;28;20071;-65
2024/03/02 15:40:25;;;;;;;22.83;13.82;;;;;;;;;;10369444;28;20086;-65
2024/03/02 15:45:24;;;;;;;14.65;11.23;;;;;;;;;;10376168;28;20525;-64
2024/03/02 15:50:23;;;;;;;15.52;12.40;;;;;;;;;;10378778;28;20063;-62
2024/03/02 15:55:21;;;;;;;25.85;15.85;;;;;;;;;;10371369;28;20075;-66
2024/03/02 16:00:21;;;;;;;16.83;13.25;;;;;;;;;;10347945;28;20505;-66
2024/03/02 16:05:20;;;;;;;16.67;13.15;;;;;;;;;;10364481;28;20702;-66
2024/03/02 16:10:18;;;;;;;22.48;14.27;;;;;;;;;;10370343;28;20102;-66
2024/03/02 16:15:21;;;;;;;20.20;15.32;;;;;;;;;;10372812;28;20079;-65
2024/03/02 16:20:20;;;;;;;31.90;21.17;;;;;;;;;;10351700;28;20068;-67
2024/03/02 16:25:19;;;;;;;18.15;13.23;;;;;;;;;;10368784;28;20071;-67
2024/03/02 16:30:18;;;;;;;15.32;11.45;;;;;;;;;;10370491;28;20071;-66
2024/03/02 16:35:18;;;;;;;16.05;12.75;;;;;;;;;;10369709;28;20083;-66
2024/03/02 16:40:16;;;;;;;20.95;14.20;;;;;;;;;;10370538;28;20078;-66
2024/03/02 16:45:15;;;;;;;21.67;13.50;;;;;;;;;;10372226;28;20160;-66
2024/03/02 16:50:13;;;;;;;27.35;16.15;;;;;;;;;;10370827;28;20059;-66
2024/03/02 16:55:13;;;;;;;29.83;17.60;;;;;;;;;;10370222;28;20485;-66
2024/03/02 17:00:11;;;;;;;21.63;15.88;;;;;;;;;;10367383;28;20539;-66
2024/03/02 17:05:10;;;;;;;25.30;17.25;;;;;;;;;;10353559;28;20067;-67
2024/03/02 17:10:08;;;;;;;27.10;17.65;;;;;;;;;;10368987;28;20653;-67
2024/03/02 17:15:08;;;;;;;18.95;14.43;;;;;;;;;;10371993;28;20493;-67
2024/03/02 17:20:09;;;;;;;20.75;15.35;;;;;;;;;;10371813;28;20443;-67
2024/03/02 17:25:07;;;;;;;28.25;16.63;;;;;;;;;;10373118;28;20067;-67
2024/03/02 17:30:08;;;;;;;25.50;17.27;;;;;;;;;;10369672;28;20072;-64
2024/03/02 17:35:07;;;;;;;29.15;16.85;;;;;;;;;;10370128;28;20043;-66
2024/03/02 17:40:06;;;;;;;22.13;16.48;;;;;;;;;;10367921;28;20108;-67
2024/03/02 17:45:05;;;;;;;27.60;19.25;;;;;;;;;;10355376;28;20090;-65
2024/03/02 17:50:06;;;;;;;23.40;18.40;;;;;;;;;;10376741;28;20527;-66
2024/03/02 17:55:04;;;;;;;22.80;16.95;;;;;;;;;;10375944;28;20453;-67
2024/03/02 18:00:03;;;;;;;29.73;15.85;;;;;;;;;;10374206;28;20076;-67
2024/03/02 18:05:10;;;;;;;18.67;14.85;;;;;;;;;;10378705;28;20110;-66
2024/03/02 18:10:09;;;;;;;22.77;17.33;;;;;;;;;;10377534;28;20151;-66
2024/03/02 18:15:08;;;;;;;24.35;17.02;;;;;;;;;;10377091;28;20543;-67
2024/03/02 18:20:07;;;;;;;25.25;16.95;;;;;;;;;;10379252;28;20063;-66
2024/03/02 18:25:09;;;;;;;23.85;17.80;;;;;;;;;;10370282;28;20138;-66
2024/03/02 18:30:09;;;;;;;23.48;16.50;;;;;;;;;;10374876;28;20512;-66
2024/03/02 18:35:09;;;;;;;22.25;17.55;;;;;;;;;;10375941;28;20513;-67
2024/03/02 18:40:09;;;;;;;24.40;16.83;;;;;;;;;;10376526;28;20075;-67
2024/03/02 18:45:08;;;;;;;20.65;16.52;;;;;;;;;;10375355;28;20077;-67
2024/03/02 18:50:08;;;;;;;26.77;18.40;;;;;;;;;;10366645;28;20097;-66
2024/03/02 18:55:07;;;;;;;20.88;17.20;;;;;;;;;;10372007;28;20072;-66
2024/03/02 19:00:10;;;;;;;23.23;19.25;;;;;;;;;;10376172;28;20094;-66
2024/03/02 19:05:11;;;;;;;18.98;16.05;;;;;;;;;;10371068;28;20067;-66
2024/03/02 19:10:10;;;;;;;21.27;15.18;;;;;;;;;;10372750;28;20083;-66
2024/03/02 19:15:13;;;;;;;23.88;16.65;;;;;;;;;;10373673;28;20078;-67
2024/03/02 19:20:12;;;;;;;22.02;17.83;;;;;;;;;;10374180;28;20075;-66
2024/03/02 19:25:11;;;;;;;20.15;17.58;;;;;;;;;;10375343;28;20056;-67
2024/03/02 19:30:11;;;;;;;19.63;15.02;;;;;;;;;;10377960;28;20071;-67
2024/03/02 19:35:11;;;;;;;22.42;16.67;;;;;;;;;;10371627;28;20084;-66
2024/03/02 19:40:10;;;;;;;24.92;16.52;;;;;;;;;;10372886;28;20070;-66
2024/03/02 19:45:10;;;;;;;20.90;16.55;;;;;;;;;;10356357;28;20048;-66
2024/03/02 19:50:12;;;;;;;23.13;16.30;;;;;;;;;;10373376;28;20078;-66
2024/03/02 19:55:12;;;;;;;23.55;16.17;;;;;;;;;;10374842;28;20114;-66
2024/03/02 20:00:15;;;;;;;27.27;16.92;;;;;;;;;;10371315;28;20090;-66
2024/03/02 20:05:14;;;;;;;24.30;17.17;;;;;;;;;;10371432;28;20084;-66
2024/03/02 20:10:13;;;;;;;18.83;16.75;;;;;;;;;;10373795;28;20493;-65
2024/03/02 20:15:13;;;;;;;25.45;18.67;;;;;;;;;;10371450;28;20068;-67
2024/03/02 20:20:16;;;;;;;21.70;18.00;;;;;;;;;;10373370;28;20075;-66
2024/03/02 20:25:15;;;;;;;33.10;20.20;;;;;;;;;;10356186;28;20075;-66
2024/03/02 20:30:15;;;;;;;22.42;16.88;;;;;;;;;;10371785;28;20523;-67
2024/03/02 20:35:14;;;;;;;29.85;20.00;;;;;;;;;;10371259;28;20063;-66
2024/03/02 20:40:14;;;;;;;29.65;20.23;;;;;;;;;;10372825;28;20470;-67
2024/03/02 20:45:15;;;;;;;24.10;18.30;;;;;;;;;;10371399;28;20067;-66
2024/03/02 20:50:15;;;;;;;27.42;17.95;;;;;;;;;;10369231;28;20547;-67
2024/03/02 20:55:13;;;;;;;23.02;19.23;;;;;;;;;;10374506;28;20067;-66
2024/03/02 21:00:13;;;;;;;19.88;17.65;;;;;;;;;;10374121;28;20079;-66
2024/03/02 21:05:12;;;;;;;25.70;19.20;;;;;;;;;;10369909;28;20068;-67
2024/03/02 21:10:12;;;;;;;23.88;17.55;;;;;;;;;;10369920;28;20452;-67
2024/03/02 21:15:10;;;;;;;25.48;16.67;;;;;;;;;;10370710;28;20074;-66
2024/03/02 21:20:12;;;;;;;21.27;15.82;;;;;;;;;;10378726;28;20071;-66
2024/03/02 21:25:12;;;;;;;19.67;16.25;;;;;;;;;;10380858;28;20071;-64
2024/03/02 21:30:11;;;;;;;24.50;16.02;;;;;;;;;;10378462;28;20083;-67
2024/03/02 21:35:10;;;;;;;20.83;15.20;;;;;;;;;;10360104;28;20070;-66
2024/03/02 21:40:11;;;;;;;23.13;15.48;;;;;;;;;;10372898;28;20531;-66
2024/03/02 21:45:10;;;;;;;23.23;16.27;;;;;;;;;;10377626;28;20083;-66
2024/03/02 21:50:09;;;;;;;21.55;17.02;;;;;;;;;;10379109;28;20068;-66
2024/03/02 21:55:08;;;;;;;22.98;16.00;;;;;;;;;;10378221;28;20455;-65
2024/03/02 22:00:08;;;;;;;24.45;17.08;;;;;;;;;;10361025;28;20094;-66
2024/03/02 22:05:12;;;;;;;26.20;16.98;;;;;;;;;;10372260;28;20087;-66
2024/03/02 22:10:10;;;;;;;24.27;17.23;;;;;;;;;;10374824;28;20060;-66
2024/03/02 22:15:09;;;;;;;24.90;15.52;;;;;;;;;;10371298;28;20101;-66
2024/03/02 22:20:07;;;;;;;19.75;17.15;;;;;;;;;;10375867;28;20079;-65
2024/03/02 22:25:08;;;;;;;20.35;16.92;;;;;;;;;;10372908;28;20100;-66
2024/03/02 22:30:07;;;;;;;21.65;17.98;;;;;;;;;;10372369;28;20098;-66
2024/03/02 22:35:06;;;;;;;22.30;16.33;;;;;;;;;;10374363;28;20079;-67
2024/03/02 22:40:04;;;;;;;25.65;19.13;;;;;;;;;;10374471;28;20079;-66
2024/03/02 22:45:05;;;;;;;24.25;19.50;;;;;;;;;;10376298;28;20083;-66
2024/03/02 22:50:03;;;;;;;22.65;17.45;;;;;;;;;;10355147;28;20044;-66
2024/03/02 22:55:01;;;;;;;21.60;16.80;;;;;;;;;;10375076;28;20082;-66
2024/03/02 22:59:59;;;;;;;23.33;17.33;;;;;;;;;;10372854;28;20083;-66
2024/03/02 23:04:59;;;;;;;24.50;18.00;;;;;;;;;;10376290;28;20084;-67
2024/03/02 23:09:57;;;;;;;23.40;18.25;;;;;;;;;;10371618;28;20055;-66
2024/03/02 23:14:56;;;;;;;22.23;17.00;;;;;;;;;;10376160;28;20068;-66
2024/03/02 23:19:54;;;;;;;25.90;16.98;;;;;;;;;;10375471;28;20504;-66
2024/03/02 23:24:54;;;;;;;25.50;18.00;;;;;;;;;;10372590;28;20105;-65
2024/03/02 23:29:52;;;;;;;32.63;22.10;;;;;;;;;;10373521;28;20067;-66
2024/03/02 23:34:51;;;;;;;28.95;21.00;;;;;;;;;;10372473;28;20079;-67
2024/03/02 23:40:17;;;;;;;25.67;19.70;;;;;;;;;;10371322;28;20106;-67
2024/03/02 23:45:18;;;;;;;25.50;17.55;;;;;;;;;;10373077;28;20063;-65
2024/03/02 23:50:16;;;;;;;20.30;16.60;;;;;;;;;;10367963;28;20071;-66
2024/03/02 23:55:15;;;;;;;22.08;16.55;;;;;;;;;;10376338;28;20326;-67
